Newark, South Dakota
Current Conditions -  °F | °C
As of 10:15 AM on Sunday 23 Nov 2014 (Local Time) from KGWR Reporting Station
Clear Clear  
Wind Chill: 30°   Ceiling: Unl
Heat Index: 37°   Visibility: 10mi
Dew Point: 36°   Wind: 10mph
Humidity: 93%   Direction: 260°W
Pressure: 29.47"   Gusts: NA
Location:  45.8144°N, 97.7089°W
Report Text: KGWR 231615Z AUTO 26009KT 10SM CLR 03/02 A2947 RMK A01 P000
Loading
Personal Weather Stations






























Interactive Weather Map New forecast layout! Learn more

10-Day Weather Forecast

Advertisements
Track Severe Weather on mobile